Погода Забидна 2 недели

Забид, Йемен

03 - 16 марта
  • 03марта
    Сегодня
    +24°
    +40°
    Облачно с прояснениями
    ВремяПогодаТемператураВлажностьДавлениеВетер, м/сВероятность осадков
    00:00Практически безоблачно+27°C79 %751 мм3.2 м/с2 %
    03:00Небольшая облачность+26°C84 %750 мм2.4 м/с2 %
    06:00Небольшая облачность+24°C89 %751 мм1.5 м/с2 %
    09:00Облачно с прояснениями+30°C64 %752 мм2.6 м/с2 %
    12:00Облачно с прояснениями+38°C37 %751 мм4.0 м/с2 %
    15:00Облачно с прояснениями+38°C36 %749 мм8.2 м/с3 %
    18:00Облачно с прояснениями+33°C60 %749 мм5.0 м/с5 %
    21:00Небольшая облачность+29°C72 %751 мм1.2 м/с2 %
  • 04марта
    Понедельник
    +25°
    +38°
    Небольшая облачность
    ВремяПогодаТемператураВлажностьДавлениеВетер, м/сВероятность осадков
    00:00Ясно и безоблачно+27°C81 %751 мм2.4 м/с2 %
    03:00Небольшая облачность+25°C90 %750 мм2.1 м/с2 %
    06:00Практически безоблачно+25°C95 %751 мм4.0 м/с2 %
    09:00Небольшая облачность+30°C68 %753 мм3.9 м/с1 %
    12:00Небольшая облачность+37°C43 %752 мм1.3 м/с5 %
    15:00Небольшая облачность+35°C43 %750 мм6.7 м/с10 %
    18:00Облачно с прояснениями+33°C53 %750 мм5.1 м/с4 %
    21:00Ясно и безоблачно+29°C68 %751 мм2.0 м/с2 %
  • 05марта
    Вторник
    +24°
    +39°
    Небольшая облачность
    ВремяПогодаТемператураВлажностьДавлениеВетер, м/сВероятность осадков
    00:00Ясно и безоблачно+27°C80 %751 мм2.0 м/с2 %
    03:00Небольшая облачность+26°C84 %750 мм0.9 м/с2 %
    06:00Облачно с прояснениями+25°C95 %751 мм3.3 м/с2 %
    09:00Облачно с прояснениями+30°C69 %753 мм3.3 м/с2 %
    12:00Небольшая облачность+39°C45 %752 мм4.3 м/с2 %
    15:00Небольшая облачность+38°C36 %749 мм7.8 м/с10 %
    18:00Небольшая облачность+34°C57 %749 мм5.1 м/с5 %
    21:00Ясно и безоблачно+29°C69 %751 мм0.9 м/с2 %
  • 06марта
    Среда
    +24°
    +39°
    Ясно и безоблачно
    ВремяПогодаТемператураВлажностьДавлениеВетер, м/сВероятность осадков
    00:00Ясно и безоблачно+28°C78 %750 мм4.1 м/с2 %
    03:00Ясно и безоблачно+25°C85 %749 мм3.4 м/с2 %
    06:00Небольшая облачность+24°C90 %751 мм1.1 м/с2 %
    09:00Облачно с прояснениями+30°C63 %752 мм1.3 м/с2 %
    12:00Ясно и безоблачно+38°C40 %751 мм3.0 м/с2 %
    15:00Ясно и безоблачно+39°C35 %749 мм5.9 м/с5 %
    18:00Ясно и безоблачно+36°C45 %749 мм5.7 м/с2 %
    21:00Ясно и безоблачно+33°C38 %750 мм1.4 м/с2 %
  • 07марта
    Четверг
    +25°
    +36°
    Ясно и безоблачно
    ВремяПогодаТемператураВлажностьДавлениеВетер, м/сВероятность осадков
    00:00Ясно и безоблачно+29°C59 %750 мм2.1 м/с2 %
    03:00Ясно и безоблачно+25°C93 %750 мм4.5 м/с2 %
    06:00Ясно и безоблачно+25°C94 %752 мм1.2 м/с2 %
    09:00Практически безоблачно+29°C69 %753 мм4.1 м/с3 %
    12:00Ясно и безоблачно+35°C51 %752 мм4.5 м/с2 %
    15:00Ясно и безоблачно+36°C46 %750 мм3.3 м/с6 %
    18:00Практически безоблачно+32°C55 %751 мм3.6 м/с2 %
    21:00Ясно и безоблачно+29°C68 %752 мм3.1 м/с2 %
Мы используем cookies
Соглашаюсь